createdAt,value
2023-04-15T00:00:44.446Z,7.5
2023-04-15T00:02:46.293Z,7.4
2023-04-15T00:04:48.025Z,7.3
2023-04-15T00:06:52.765Z,7.4
2023-04-15T00:08:54.459Z,7.5
2023-04-15T00:12:57.806Z,7.4
2023-04-15T00:14:59.515Z,7.5
2023-04-15T00:17:01.268Z,7.5
2023-04-15T00:26:13.633Z,7.3
2023-04-15T00:28:15.333Z,7.4
2023-04-15T00:30:16.982Z,7.4
2023-04-15T00:32:18.679Z,7.3
2023-04-15T00:34:23.591Z,7.3
2023-04-15T00:36:25.266Z,7.3
2023-04-15T00:38:26.945Z,7.2
2023-04-15T00:40:28.618Z,7.2
2023-04-15T00:42:30.309Z,7.2
2023-04-15T00:44:31.967Z,7.2
2023-04-15T00:46:33.657Z,7.1
2023-04-15T00:48:38.567Z,7.1
2023-04-15T00:50:40.267Z,7.1
2023-04-15T00:52:41.940Z,7
2023-04-15T00:56:45.252Z,6.9
2023-04-15T00:58:46.915Z,7
2023-04-15T01:02:53.655Z,6.8
2023-04-15T01:04:55.178Z,6.8
2023-04-15T01:06:56.866Z,6.8
2023-04-15T01:11:00.197Z,6.8
2023-04-15T01:19:10.086Z,6.8
2023-04-15T01:21:11.735Z,6.7
2023-04-15T01:22:14.193Z,6.7
2023-04-15T01:24:15.871Z,6.6
2023-04-15T01:28:19.182Z,6.6
2023-04-15T01:32:25.849Z,6.7
2023-04-15T01:34:27.416Z,6.7
2023-04-15T01:36:29.098Z,6.6
2023-04-15T01:38:30.747Z,6.6
2023-04-15T01:40:32.408Z,6.5
2023-04-15T01:42:34.074Z,6.5
2023-04-15T01:44:38.991Z,6.5
2023-04-15T01:46:40.673Z,6.5
2023-04-15T01:48:42.306Z,6.4
2023-04-15T01:50:43.946Z,6.4
2023-04-15T01:52:45.607Z,6.4
2023-04-15T01:54:47.266Z,6.4
2023-04-15T01:56:48.948Z,6.3
2023-04-15T01:58:53.858Z,6.3
2023-04-15T02:00:55.530Z,6.3
2023-04-15T02:04:58.798Z,6.3
2023-04-15T02:07:00.479Z,6.3
2023-04-15T02:09:02.374Z,6.2
2023-04-15T02:11:03.746Z,6.2
2023-04-15T02:13:08.659Z,6.1
2023-04-15T02:15:10.298Z,6.2
2023-04-15T02:21:42.230Z,6.2
2023-04-15T02:23:43.902Z,6.2
2023-04-15T02:25:53.886Z,6.2
2023-04-15T02:27:50.441Z,6.1
2023-04-15T02:29:52.068Z,6.2
2023-04-15T02:31:53.729Z,6.1
2023-04-15T02:33:55.391Z,6
2023-04-15T02:35:57.030Z,6.2
2023-04-15T02:40:03.552Z,6.1
2023-04-15T02:44:06.826Z,6.1
2023-04-15T02:48:10.146Z,6
2023-04-15T02:50:11.776Z,6.1
2023-04-15T02:56:20.037Z,6.1
2023-04-15T02:58:21.591Z,6
2023-04-15T03:00:23.224Z,6.1
2023-04-15T03:02:25.046Z,6.1
2023-04-15T03:04:26.524Z,6.2
2023-04-15T03:10:34.699Z,6.1
2023-04-15T03:13:38.764Z,6
2023-04-15T03:15:40.447Z,6.2
2023-04-15T03:17:42.065Z,6.1
2023-04-15T03:19:43.694Z,6.1
2023-04-15T03:21:48.585Z,6.1
2023-04-15T03:23:50.218Z,6.2
2023-04-15T03:25:51.839Z,6.2
2023-04-15T03:27:53.521Z,6.1
2023-04-15T03:29:55.136Z,6
2023-04-15T03:31:56.772Z,6.1
2023-04-15T03:33:58.441Z,6.1
2023-04-15T03:36:03.309Z,6
2023-04-15T03:38:04.952Z,6
2023-04-15T03:40:06.564Z,6
2023-04-15T03:42:08.192Z,6
2023-04-15T03:44:09.878Z,5.9
2023-04-15T03:46:11.500Z,5.9
2023-04-15T03:48:17.676Z,5.9
2023-04-15T03:50:18.050Z,5.9
2023-04-15T03:54:21.311Z,6
2023-04-15T03:56:22.951Z,5.9
2023-04-15T03:58:24.576Z,6
2023-04-15T04:00:26.390Z,5.9
2023-04-15T04:02:27.979Z,6
2023-04-15T04:04:32.878Z,5.9
2023-04-15T04:06:34.388Z,6
2023-04-15T04:08:36.037Z,5.9
2023-04-15T04:09:38.463Z,5.9
2023-04-15T04:11:40.108Z,5.9
2023-04-15T04:15:43.456Z,5.9
2023-04-15T04:17:48.445Z,5.9
2023-04-15T04:19:49.998Z,5.9
2023-04-15T04:21:51.606Z,5.9
2023-04-15T04:25:54.881Z,5.9
2023-04-15T04:27:56.529Z,5.8
2023-04-15T04:32:03.088Z,5.8
2023-04-15T04:34:04.681Z,5.9
2023-04-15T04:36:06.293Z,5.8
2023-04-15T04:38:07.966Z,5.9
2023-04-15T04:40:11.168Z,5.8
2023-04-15T04:48:20.890Z,5.7
2023-04-15T04:52:24.156Z,5.7
2023-04-15T04:54:25.781Z,5.7
2023-04-15T04:58:29.043Z,5.7
2023-04-15T05:02:35.713Z,5.7
2023-04-15T05:04:37.179Z,5.8
2023-04-15T05:07:41.236Z,5.8
2023-04-15T05:09:42.862Z,5.9
2023-04-15T05:13:49.362Z,5.8
2023-04-15T05:15:50.994Z,5.9
2023-04-15T05:23:57.501Z,5.9
2023-04-15T05:25:59.132Z,6.1
2023-04-15T05:28:03.995Z,6
2023-04-15T05:30:05.608Z,6.1
2023-04-15T05:32:07.231Z,6
2023-04-15T05:34:08.872Z,6.1
2023-04-15T05:36:10.514Z,6.1
2023-04-15T05:38:12.134Z,6.2
2023-04-15T05:40:13.783Z,6.2
2023-04-15T05:42:18.667Z,6.3
2023-04-15T05:44:20.266Z,6.2
2023-04-15T05:48:23.548Z,6.4
2023-04-15T05:52:26.834Z,6.6
2023-04-15T06:00:36.677Z,7
2023-04-15T06:03:05.352Z,7.1
2023-04-15T06:15:18.460Z,7.6
2023-04-15T06:17:20.153Z,7.6
2023-04-15T06:21:23.521Z,7.8
2023-04-15T06:23:28.438Z,8
2023-04-15T06:35:38.536Z,9
2023-04-15T06:37:43.499Z,10.8
2023-04-15T06:57:04.704Z,9.7
2023-04-15T07:01:08.205Z,9.6
2023-04-15T07:03:09.969Z,9.5
2023-04-15T07:05:14.880Z,9.6
2023-04-15T07:19:30.308Z,9.8
2023-04-15T07:25:35.527Z,10
2023-04-15T07:27:37.259Z,10.4
2023-04-15T07:29:39.028Z,10.6
2023-04-15T07:33:45.743Z,10.8
2023-04-15T07:35:47.505Z,10.9
2023-04-15T07:37:49.284Z,10.9
2023-04-15T07:39:51.033Z,10.8
2023-04-15T07:41:52.784Z,11.1
2023-04-15T07:48:01.395Z,11
2023-04-15T07:50:03.109Z,10.8
2023-04-15T07:53:07.369Z,11.3
2023-04-15T07:55:09.160Z,11.1
2023-04-15T07:57:10.903Z,11.2
2023-04-15T07:59:12.656Z,11.5
2023-04-15T08:01:17.667Z,11.8
2023-04-15T08:03:19.525Z,11.9
2023-04-15T08:09:24.784Z,12.4
2023-04-15T08:11:26.549Z,12.4
2023-04-15T08:19:36.940Z,11.6
2023-04-15T08:21:38.728Z,11.9
2023-04-15T08:25:42.283Z,12.2
2023-04-15T08:27:44.058Z,12.1
2023-04-15T08:29:49.096Z,12.2
2023-04-15T08:31:50.872Z,12.2
2023-04-15T08:35:54.437Z,12.5
2023-04-15T08:37:56.233Z,12.7
2023-04-15T08:39:57.995Z,12.5
2023-04-15T08:41:59.791Z,12.4
2023-04-15T08:46:06.601Z,12.2
2023-04-15T08:48:08.402Z,12.5
2023-04-15T08:49:10.918Z,12.8
2023-04-15T08:51:12.715Z,12.6
2023-04-15T08:53:14.487Z,12.4
2023-04-15T08:57:21.329Z,12.3
2023-04-15T09:09:32.100Z,13.5
2023-04-15T09:11:37.124Z,14.4
2023-04-15T09:13:38.933Z,14.6
2023-04-15T09:15:40.744Z,14.5
2023-04-15T09:34:00.385Z,13.5
2023-04-15T09:36:02.022Z,13.3
2023-04-15T09:38:03.819Z,13.3
2023-04-15T09:42:10.693Z,14.2
2023-04-15T09:44:12.485Z,14.7
2023-04-15T09:46:41.187Z,15.6
2023-04-15T09:48:43.003Z,15.7
2023-04-15T09:50:44.772Z,15.5
2023-04-15T09:52:49.854Z,15.6
2023-04-15T09:54:51.666Z,15.6
2023-04-15T09:56:53.478Z,15.4
2023-04-15T09:58:55.270Z,15.6
2023-04-15T10:00:57.275Z,15.7
2023-04-15T10:02:58.991Z,15.3
2023-04-15T10:05:00.737Z,14.6
2023-04-15T10:07:05.813Z,14.6
2023-04-15T10:09:07.614Z,14.8
2023-04-15T10:11:09.414Z,15.2
2023-04-15T10:13:11.253Z,15.4
2023-04-15T10:15:13.051Z,15.7
2023-04-15T10:17:14.867Z,15.2
2023-04-15T10:19:16.681Z,14.8
2023-04-15T10:21:21.735Z,14.7
2023-04-15T10:25:25.366Z,14.5
2023-04-15T10:29:28.979Z,14.1
2023-04-15T10:31:32.513Z,14.1
2023-04-15T10:33:34.137Z,14.3
2023-04-15T10:35:39.210Z,14.4
2023-04-15T10:37:41.000Z,14.6
2023-04-15T10:40:45.364Z,15
2023-04-15T10:42:47.162Z,15.3
2023-04-15T10:44:48.978Z,15.3
2023-04-15T10:46:50.797Z,14.9
2023-04-15T10:48:55.866Z,14.4
2023-04-15T10:50:57.686Z,14.5
2023-04-15T10:52:59.505Z,14.7
2023-04-15T11:03:11.917Z,14.5
2023-04-15T11:05:13.636Z,14.6
2023-04-15T11:07:15.455Z,14.2
2023-04-15T11:13:20.870Z,14.6
2023-04-15T11:15:23.580Z,14.7
2023-04-15T11:17:27.780Z,15.4
2023-04-15T11:19:29.596Z,15.7
2023-04-15T11:21:31.405Z,15
2023-04-15T11:23:33.195Z,15
2023-04-15T11:25:35.024Z,15.1
2023-04-15T11:27:36.822Z,15.3
2023-04-15T11:29:38.627Z,15.8
2023-04-15T11:31:43.759Z,17.1
2023-04-15T11:35:47.324Z,16.6
2023-04-15T11:36:49.864Z,16.9
2023-04-15T11:38:51.693Z,16.8
2023-04-15T11:40:53.492Z,17.4
2023-04-15T11:42:55.305Z,16.9
2023-04-15T11:45:00.379Z,16.1
2023-04-15T11:47:02.177Z,15.7
2023-04-15T11:49:03.998Z,15.4
2023-04-15T11:51:05.804Z,14.8
2023-04-15T11:53:08.590Z,15.2
2023-04-15T11:55:09.478Z,16
2023-04-15T11:59:16.324Z,15.5
2023-04-15T12:01:18.144Z,15.4
2023-04-15T12:03:20.188Z,16.8
2023-04-15T12:05:21.802Z,16.5
2023-04-15T12:07:23.610Z,15.9
2023-04-15T12:09:25.408Z,16
2023-04-15T12:11:27.227Z,15.8
2023-04-15T12:15:34.091Z,15
2023-04-15T12:19:37.759Z,14.4
2023-04-15T12:23:41.338Z,15.8
2023-04-15T12:25:43.161Z,16.3
2023-04-15T12:32:54.408Z,16.2
2023-04-15T12:34:56.182Z,15.5
2023-04-15T12:36:58.020Z,15.2
2023-04-15T12:38:59.833Z,14.6
2023-04-15T12:41:04.890Z,14.8
2023-04-15T12:43:06.730Z,15.1
2023-04-15T12:45:08.508Z,15.3
2023-04-15T12:49:12.135Z,15.2
2023-04-15T12:51:13.963Z,15.5
2023-04-15T12:53:15.776Z,15.4
2023-04-15T12:55:21.509Z,14.8
2023-04-15T12:57:23.311Z,14.5
2023-04-15T13:03:28.910Z,14.2
2023-04-15T13:07:32.413Z,13.8
2023-04-15T13:09:37.430Z,13.8
2023-04-15T13:11:39.243Z,13.5
2023-04-15T13:13:41.040Z,13.7
2023-04-15T13:15:44.150Z,13.7
2023-04-15T13:17:44.705Z,13.5
2023-04-15T13:21:48.273Z,13.5
2023-04-15T13:23:53.331Z,13.6
2023-04-15T13:25:55.106Z,13.5
2023-04-15T13:27:56.925Z,13.5
2023-04-15T13:34:29.201Z,13.3
2023-04-15T13:38:36.058Z,13.3
2023-04-15T13:40:37.843Z,13
2023-04-15T13:48:45.059Z,12.8
2023-04-15T13:50:50.086Z,12.7
2023-04-15T13:55:18.254Z,12.4
2023-04-15T14:00:59.070Z,12.4
2023-04-15T14:03:01.032Z,12.5
2023-04-15T14:05:05.891Z,12.6
2023-04-15T14:07:07.693Z,12.6
2023-04-15T14:11:11.249Z,12.3
2023-04-15T14:13:13.038Z,12.2
2023-04-15T14:17:16.625Z,12.4
2023-04-15T14:19:21.660Z,12.1
2023-04-15T14:23:25.242Z,11.8
2023-04-15T14:24:27.751Z,11.7
2023-04-15T15:13:20.029Z,11.3
2023-04-15T15:15:28.822Z,11.3
2023-04-15T15:17:26.797Z,11.2
2023-04-15T15:19:28.585Z,11.4
2023-04-15T15:32:45.039Z,11.2
2023-04-15T15:34:46.786Z,11
2023-04-15T15:36:48.516Z,10.8
2023-04-15T15:40:52.061Z,10.9
2023-04-15T15:47:00.690Z,11.4
2023-04-15T16:09:23.712Z,10.7
2023-04-15T16:11:28.663Z,10.6
2023-04-15T16:13:30.431Z,10.7
2023-04-15T16:15:32.214Z,10.8
2023-04-15T16:16:34.737Z,10.7
2023-04-15T16:18:36.464Z,10.6
2023-04-15T16:20:38.239Z,10.7
2023-04-15T16:22:41.556Z,10.6
2023-04-15T16:24:46.498Z,10.5
2023-04-15T16:26:48.271Z,10.7
2023-04-15T16:28:50.034Z,10.6
2023-04-15T16:30:51.780Z,10.6
2023-04-15T16:32:53.590Z,10.8
2023-04-15T16:34:55.321Z,10.4
2023-04-15T16:36:57.072Z,10.5
2023-04-15T16:41:03.820Z,10.2
2023-04-15T16:43:05.569Z,10.2
2023-04-15T16:45:07.338Z,10.1
2023-04-15T16:47:09.088Z,10.2
2023-04-15T16:49:10.841Z,10.3
2023-04-15T16:51:12.595Z,10.3
2023-04-15T16:53:17.555Z,10.2
2023-04-15T16:55:19.319Z,10.1
2023-04-15T16:57:21.088Z,10.3
2023-04-15T17:01:24.624Z,10.4
2023-04-15T17:03:26.532Z,10.2
2023-04-15T17:09:34.816Z,9.9
2023-04-15T17:20:13.689Z,10
2023-04-15T17:28:20.675Z,10.2
2023-04-15T17:30:23.578Z,10
2023-04-15T17:34:49.715Z,10.1
2023-04-15T17:36:30.909Z,10
2023-04-15T17:38:32.646Z,10.1
2023-04-15T17:44:37.886Z,9.9
2023-04-15T17:48:44.615Z,9.9
2023-04-15T17:50:46.773Z,10
2023-04-15T17:54:49.854Z,9.9
2023-04-15T17:56:51.601Z,9.8
2023-04-15T18:00:55.086Z,9.5
2023-04-15T18:05:01.915Z,9.5
2023-04-15T18:07:03.509Z,9.4
2023-04-15T18:10:07.745Z,9.2
2023-04-15T18:12:09.490Z,9.3
2023-04-15T18:14:11.334Z,9.2
2023-04-15T18:16:16.212Z,9.3
2023-04-15T18:26:24.879Z,9.3
2023-04-15T18:28:26.610Z,9.4
2023-04-15T18:30:31.577Z,9.4
2023-04-15T18:32:33.357Z,9.4
2023-04-15T18:34:35.049Z,9.3
2023-04-15T18:36:36.778Z,9.4
2023-04-15T18:38:38.552Z,9.4
2023-04-15T18:40:40.256Z,9.5
2023-04-15T18:42:41.991Z,9.4
2023-04-15T18:46:48.698Z,9.6
2023-04-15T18:48:50.411Z,9.6
2023-04-15T18:50:52.161Z,9.5
2023-04-15T18:52:53.888Z,9.4
2023-04-15T18:54:55.612Z,9.3
2023-04-15T18:56:57.364Z,9.3
2023-04-15T18:59:26.963Z,9.4
2023-04-15T19:01:04.112Z,9.5
2023-04-15T19:03:05.905Z,9.3
2023-04-15T19:04:08.314Z,9.2
2023-04-15T19:06:10.032Z,9.3
2023-04-15T19:18:23.716Z,8.9
2023-04-15T19:20:26.568Z,8.9
2023-04-15T19:22:27.204Z,8.9
2023-04-15T19:26:33.892Z,8.8
2023-04-15T19:28:35.633Z,8.8
2023-04-15T19:30:37.377Z,8.9
2023-04-15T19:32:39.162Z,8.8
2023-04-15T19:34:40.858Z,8.7
2023-04-15T19:36:42.625Z,8.7
2023-04-15T19:38:44.297Z,8.7
2023-04-15T19:40:49.280Z,8.7
2023-04-15T19:42:51.011Z,8.7
2023-04-15T19:44:52.729Z,8.6
2023-04-15T19:46:54.481Z,8.7
2023-04-15T19:48:56.193Z,8.7
2023-04-15T19:50:57.931Z,8.8
2023-04-15T19:52:59.723Z,9
2023-04-15T19:55:04.672Z,8.9
2023-04-15T19:57:06.376Z,8.7
2023-04-15T19:59:08.257Z,8.6
2023-04-15T20:00:10.634Z,8.7
2023-04-15T20:02:12.430Z,8.7
2023-04-15T20:08:20.762Z,8.7
2023-04-15T20:14:25.972Z,8.9
2023-04-15T20:16:27.709Z,8.8
2023-04-15T20:18:29.445Z,8.8
2023-04-15T20:24:37.858Z,8.6
2023-04-15T20:28:41.309Z,8.7
2023-04-15T20:34:46.509Z,8.6
2023-04-15T20:36:51.461Z,8.6
2023-04-15T20:38:53.181Z,8.7
2023-04-15T20:40:54.925Z,8.7
2023-04-15T20:42:56.621Z,8.6
2023-04-15T20:51:06.792Z,8.5
2023-04-15T20:53:08.496Z,8.5
2023-04-15T20:55:10.210Z,8.5
2023-04-15T20:59:40.573Z,8.6
2023-04-15T21:01:42.352Z,8.6
2023-04-15T21:03:47.396Z,8.6
2023-04-15T21:05:48.951Z,8.6
2023-04-15T21:22:05.988Z,8.8
2023-04-15T21:24:07.832Z,8.6
2023-04-15T21:26:09.405Z,8.8
2023-04-15T21:28:11.146Z,8.7
2023-04-15T21:30:12.839Z,8.7
2023-04-15T21:32:17.861Z,8.8
2023-04-15T21:34:19.545Z,8.8
2023-04-15T21:36:21.248Z,8.8
2023-04-15T21:38:23.525Z,8.8
2023-04-15T21:40:24.680Z,8.8
2023-04-15T21:42:26.429Z,8.8
2023-04-15T21:44:28.113Z,8.8
2023-04-15T21:46:35.602Z,8.8
2023-04-15T21:48:34.833Z,8.9
2023-04-15T21:51:38.963Z,8.7
2023-04-15T21:53:40.736Z,8.8
2023-04-15T21:55:42.451Z,8.7
2023-04-15T21:57:44.156Z,8.7
2023-04-15T21:59:49.112Z,8.6
2023-04-15T22:01:51.173Z,8.8
2023-04-15T22:03:52.810Z,8.8
2023-04-15T22:05:54.298Z,8.9
2023-04-15T22:07:56.006Z,8.8
2023-04-15T22:11:59.461Z,8.8
2023-04-15T22:14:05.968Z,8.8
2023-04-15T22:16:07.739Z,8.8
2023-04-15T22:18:09.415Z,8.8
2023-04-15T22:20:11.152Z,8.8
2023-04-15T22:22:12.864Z,8.8
2023-04-15T22:24:34.431Z,8.8
2023-04-15T22:26:16.348Z,8.8
2023-04-15T22:28:21.285Z,8.8
2023-04-15T22:30:23.010Z,8.9
2023-04-15T22:34:26.453Z,8.9
2023-04-15T22:36:28.197Z,9
2023-04-15T22:38:30.710Z,8.9
2023-04-15T22:40:32.670Z,8.8
2023-04-15T22:42:37.354Z,8.9
2023-04-15T22:55:53.437Z,8.8
2023-04-15T22:57:55.177Z,8.9
2023-04-15T23:01:58.708Z,8.7
2023-04-15T23:04:07.305Z,8.8
2023-04-15T23:10:08.785Z,8.9
2023-04-15T23:16:14.064Z,8.8
2023-04-15T23:18:15.691Z,8.8
2023-04-15T23:20:17.438Z,8.9
2023-04-15T23:24:24.121Z,8.7
2023-04-15T23:26:25.874Z,8.7
2023-04-15T23:28:27.588Z,8.8
2023-04-15T23:32:31.104Z,8.8
2023-04-15T23:34:32.748Z,8.7
2023-04-15T23:36:34.491Z,8.9
2023-04-15T23:38:39.444Z,8.9
2023-04-15T23:40:41.183Z,8.8
2023-04-15T23:43:45.396Z,8.9
2023-04-15T23:45:47.150Z,8.9
2023-04-15T23:47:48.879Z,8.8
2023-04-15T23:49:50.593Z,8.9
